sensor_id;sensor_type;location;lat;lon;timestamp;P1;durP1;ratioP1;P2;durP2;ratioP2
77430;SDS011;66498;48.564;19.272;2023-09-19T00:01:33;9.15;;;8.15;;
77430;SDS011;66498;48.564;19.272;2023-09-19T00:04:00;13.30;;;8.43;;
77430;SDS011;66498;48.564;19.272;2023-09-19T00:06:30;10.77;;;8.25;;
77430;SDS011;66498;48.564;19.272;2023-09-19T00:08:56;9.20;;;8.30;;
77430;SDS011;66498;48.564;19.272;2023-09-19T00:11:26;9.57;;;8.07;;
77430;SDS011;66498;48.564;19.272;2023-09-19T00:13:52;10.68;;;8.52;;
77430;SDS011;66498;48.564;19.272;2023-09-19T00:16:17;12.77;;;8.68;;
77430;SDS011;66498;48.564;19.272;2023-09-19T00:18:44;10.10;;;8.93;;
77430;SDS011;66498;48.564;19.272;2023-09-19T00:21:10;14.43;;;8.88;;
77430;SDS011;66498;48.564;19.272;2023-09-19T00:23:35;11.43;;;8.93;;
77430;SDS011;66498;48.564;19.272;2023-09-19T00:26:01;11.73;;;8.98;;
77430;SDS011;66498;48.564;19.272;2023-09-19T00:28:26;13.70;;;9.40;;
77430;SDS011;66498;48.564;19.272;2023-09-19T00:30:53;13.75;;;8.70;;
77430;SDS011;66498;48.564;19.272;2023-09-19T00:33:22;11.48;;;9.30;;
77430;SDS011;66498;48.564;19.272;2023-09-19T00:35:48;12.13;;;9.05;;
77430;SDS011;66498;48.564;19.272;2023-09-19T00:38:17;13.73;;;9.32;;
77430;SDS011;66498;48.564;19.272;2023-09-19T00:40:46;12.57;;;9.35;;
77430;SDS011;66498;48.564;19.272;2023-09-19T00:43:13;10.13;;;8.48;;
77430;SDS011;66498;48.564;19.272;2023-09-19T00:45:39;14.73;;;9.55;;
77430;SDS011;66498;48.564;19.272;2023-09-19T00:48:08;11.05;;;9.23;;
77430;SDS011;66498;48.564;19.272;2023-09-19T00:50:34;13.35;;;9.30;;
77430;SDS011;66498;48.564;19.272;2023-09-19T00:53:01;14.35;;;9.80;;
77430;SDS011;66498;48.564;19.272;2023-09-19T00:55:32;11.63;;;9.82;;
77430;SDS011;66498;48.564;19.272;2023-09-19T00:57:59;11.70;;;9.25;;
77430;SDS011;66498;48.564;19.272;2023-09-19T01:00:26;12.77;;;10.07;;
77430;SDS011;66498;48.564;19.272;2023-09-19T01:02:52;11.60;;;9.52;;
77430;SDS011;66498;48.564;19.272;2023-09-19T01:05:19;13.88;;;9.63;;
77430;SDS011;66498;48.564;19.272;2023-09-19T01:07:45;12.93;;;9.73;;
77430;SDS011;66498;48.564;19.272;2023-09-19T01:10:14;12.75;;;9.82;;
77430;SDS011;66498;48.564;19.272;2023-09-19T01:12:47;10.80;;;9.43;;
77430;SDS011;66498;48.564;19.272;2023-09-19T01:21:05;11.30;;;9.57;;
77430;SDS011;66498;48.564;19.272;2023-09-19T01:24:31;13.30;;;9.73;;
77430;SDS011;66498;48.564;19.272;2023-09-19T01:29:43;11.30;;;9.98;;
77430;SDS011;66498;48.564;19.272;2023-09-19T01:32:11;12.05;;;9.82;;
77430;SDS011;66498;48.564;19.272;2023-09-19T01:34:48;12.25;;;9.98;;
77430;SDS011;66498;48.564;19.272;2023-09-19T01:37:19;12.65;;;9.45;;
77430;SDS011;66498;48.564;19.272;2023-09-19T01:39:53;13.05;;;10.30;;
77430;SDS011;66498;48.564;19.272;2023-09-19T01:42:31;13.65;;;10.48;;
77430;SDS011;66498;48.564;19.272;2023-09-19T01:47:33;12.43;;;10.02;;
77430;SDS011;66498;48.564;19.272;2023-09-19T01:53:06;14.18;;;10.73;;
77430;SDS011;66498;48.564;19.272;2023-09-19T01:55:43;11.77;;;10.57;;
77430;SDS011;66498;48.564;19.272;2023-09-19T01:58:18;13.13;;;10.57;;
77430;SDS011;66498;48.564;19.272;2023-09-19T02:03:16;14.05;;;11.15;;
77430;SDS011;66498;48.564;19.272;2023-09-19T02:05:48;16.88;;;11.68;;
77430;SDS011;66498;48.564;19.272;2023-09-19T02:08:17;14.85;;;11.93;;
77430;SDS011;66498;48.564;19.272;2023-09-19T02:10:44;17.08;;;11.40;;
77430;SDS011;66498;48.564;19.272;2023-09-19T02:13:15;13.60;;;11.95;;
77430;SDS011;66498;48.564;19.272;2023-09-19T02:15:42;14.15;;;12.05;;
77430;SDS011;66498;48.564;19.272;2023-09-19T02:18:09;15.85;;;11.85;;
77430;SDS011;66498;48.564;19.272;2023-09-19T02:20:36;13.48;;;11.70;;
77430;SDS011;66498;48.564;19.272;2023-09-19T02:23:03;15.15;;;12.43;;
77430;SDS011;66498;48.564;19.272;2023-09-19T02:25:28;15.43;;;12.85;;
77430;SDS011;66498;48.564;19.272;2023-09-19T02:27:54;14.35;;;12.55;;
77430;SDS011;66498;48.564;19.272;2023-09-19T02:30:23;15.00;;;12.50;;
77430;SDS011;66498;48.564;19.272;2023-09-19T02:32:50;14.57;;;13.07;;
77430;SDS011;66498;48.564;19.272;2023-09-19T02:35:16;13.85;;;12.45;;
77430;SDS011;66498;48.564;19.272;2023-09-19T02:37:44;14.00;;;12.52;;
77430;SDS011;66498;48.564;19.272;2023-09-19T02:40:11;14.50;;;12.60;;
77430;SDS011;66498;48.564;19.272;2023-09-19T02:42:55;17.23;;;12.35;;
77430;SDS011;66498;48.564;19.272;2023-09-19T02:45:24;14.93;;;12.65;;
77430;SDS011;66498;48.564;19.272;2023-09-19T02:47:50;14.50;;;12.45;;
77430;SDS011;66498;48.564;19.272;2023-09-19T02:50:16;13.18;;;11.77;;
77430;SDS011;66498;48.564;19.272;2023-09-19T02:52:42;16.45;;;12.00;;
77430;SDS011;66498;48.564;19.272;2023-09-19T02:55:09;13.95;;;12.55;;
77430;SDS011;66498;48.564;19.272;2023-09-19T02:57:36;13.65;;;11.80;;
77430;SDS011;66498;48.564;19.272;2023-09-19T03:00:09;15.13;;;11.82;;
77430;SDS011;66498;48.564;19.272;2023-09-19T03:02:36;13.57;;;11.80;;
77430;SDS011;66498;48.564;19.272;2023-09-19T03:05:05;18.15;;;12.52;;
77430;SDS011;66498;48.564;19.272;2023-09-19T03:07:31;13.88;;;12.27;;
77430;SDS011;66498;48.564;19.272;2023-09-19T03:09:57;14.15;;;12.32;;
77430;SDS011;66498;48.564;19.272;2023-09-19T03:12:22;14.10;;;12.57;;
77430;SDS011;66498;48.564;19.272;2023-09-19T03:14:48;14.43;;;12.80;;
77430;SDS011;66498;48.564;19.272;2023-09-19T03:17:15;18.35;;;12.60;;
77430;SDS011;66498;48.564;19.272;2023-09-19T03:19:41;14.35;;;12.90;;
77430;SDS011;66498;48.564;19.272;2023-09-19T03:22:08;17.10;;;12.52;;
77430;SDS011;66498;48.564;19.272;2023-09-19T03:24:34;14.02;;;12.27;;
77430;SDS011;66498;48.564;19.272;2023-09-19T03:27:01;14.52;;;12.68;;
77430;SDS011;66498;48.564;19.272;2023-09-19T03:29:28;13.93;;;12.30;;
77430;SDS011;66498;48.564;19.272;2023-09-19T03:31:53;14.25;;;12.75;;
77430;SDS011;66498;48.564;19.272;2023-09-19T03:34:19;14.27;;;12.23;;
77430;SDS011;66498;48.564;19.272;2023-09-19T03:36:45;14.77;;;12.77;;
77430;SDS011;66498;48.564;19.272;2023-09-19T03:39:11;13.52;;;12.13;;
77430;SDS011;66498;48.564;19.272;2023-09-19T03:41:37;15.07;;;12.23;;
77430;SDS011;66498;48.564;19.272;2023-09-19T03:44:02;17.40;;;12.52;;
77430;SDS011;66498;48.564;19.272;2023-09-19T03:46:28;13.70;;;12.27;;
77430;SDS011;66498;48.564;19.272;2023-09-19T03:48:54;17.48;;;12.90;;
77430;SDS011;66498;48.564;19.272;2023-09-19T03:51:20;15.43;;;12.70;;
77430;SDS011;66498;48.564;19.272;2023-09-19T03:53:45;14.70;;;12.30;;
77430;SDS011;66498;48.564;19.272;2023-09-19T03:56:11;14.73;;;12.75;;
77430;SDS011;66498;48.564;19.272;2023-09-19T03:58:37;13.70;;;12.30;;
77430;SDS011;66498;48.564;19.272;2023-09-19T04:01:04;14.80;;;13.30;;
77430;SDS011;66498;48.564;19.272;2023-09-19T04:03:32;19.10;;;14.00;;
77430;SDS011;66498;48.564;19.272;2023-09-19T04:06:18;15.02;;;12.90;;
77430;SDS011;66498;48.564;19.272;2023-09-19T04:08:45;15.00;;;13.40;;
77430;SDS011;66498;48.564;19.272;2023-09-19T04:11:12;18.67;;;13.18;;
77430;SDS011;66498;48.564;19.272;2023-09-19T04:13:38;16.98;;;13.73;;
77430;SDS011;66498;48.564;19.272;2023-09-19T04:16:06;18.27;;;13.13;;
77430;SDS011;66498;48.564;19.272;2023-09-19T04:18:33;14.55;;;13.05;;
77430;SDS011;66498;48.564;19.272;2023-09-19T04:21:03;18.05;;;14.75;;
77430;SDS011;66498;48.564;19.272;2023-09-19T04:23:37;17.55;;;15.02;;
77430;SDS011;66498;48.564;19.272;2023-09-19T04:27:00;20.02;;;15.32;;
77430;SDS011;66498;48.564;19.272;2023-09-19T04:29:28;23.70;;;16.25;;
77430;SDS011;66498;48.564;19.272;2023-09-19T04:32:04;26.92;;;17.95;;
77430;SDS011;66498;48.564;19.272;2023-09-19T04:34:31;34.85;;;21.02;;
77430;SDS011;66498;48.564;19.272;2023-09-19T04:37:03;31.50;;;20.92;;
77430;SDS011;66498;48.564;19.272;2023-09-19T04:39:32;25.23;;;19.30;;
77430;SDS011;66498;48.564;19.272;2023-09-19T04:42:00;24.20;;;18.05;;
77430;SDS011;66498;48.564;19.272;2023-09-19T04:44:26;20.80;;;17.98;;
77430;SDS011;66498;48.564;19.272;2023-09-19T04:46:51;23.40;;;18.00;;
77430;SDS011;66498;48.564;19.272;2023-09-19T04:49:17;24.45;;;18.35;;
77430;SDS011;66498;48.564;19.272;2023-09-19T04:51:43;23.20;;;18.90;;
77430;SDS011;66498;48.564;19.272;2023-09-19T04:54:08;19.83;;;17.67;;
77430;SDS011;66498;48.564;19.272;2023-09-19T04:56:34;22.70;;;17.48;;
77430;SDS011;66498;48.564;19.272;2023-09-19T04:59:00;23.33;;;17.40;;
77430;SDS011;66498;48.564;19.272;2023-09-19T05:01:25;19.52;;;17.23;;
77430;SDS011;66498;48.564;19.272;2023-09-19T05:03:52;22.48;;;17.92;;
77430;SDS011;66498;48.564;19.272;2023-09-19T05:06:18;19.40;;;17.25;;
77430;SDS011;66498;48.564;19.272;2023-09-19T05:08:46;19.23;;;16.92;;
77430;SDS011;66498;48.564;19.272;2023-09-19T05:11:18;18.65;;;16.38;;
77430;SDS011;66498;48.564;19.272;2023-09-19T05:13:47;17.15;;;14.73;;
77430;SDS011;66498;48.564;19.272;2023-09-19T05:16:14;20.52;;;15.40;;
77430;SDS011;66498;48.564;19.272;2023-09-19T05:18:41;20.65;;;14.13;;
77430;SDS011;66498;48.564;19.272;2023-09-19T05:21:07;19.58;;;14.82;;
77430;SDS011;66498;48.564;19.272;2023-09-19T05:23:33;17.88;;;14.88;;
77430;SDS011;66498;48.564;19.272;2023-09-19T05:25:58;17.23;;;14.23;;
77430;SDS011;66498;48.564;19.272;2023-09-19T05:28:25;17.55;;;13.73;;
77430;SDS011;66498;48.564;19.272;2023-09-19T05:30:52;16.10;;;13.55;;
77430;SDS011;66498;48.564;19.272;2023-09-19T05:33:18;17.95;;;12.77;;
77430;SDS011;66498;48.564;19.272;2023-09-19T05:35:44;15.10;;;13.10;;
77430;SDS011;66498;48.564;19.272;2023-09-19T05:38:12;15.20;;;12.95;;
77430;SDS011;66498;48.564;19.272;2023-09-19T05:40:39;13.70;;;12.30;;
77430;SDS011;66498;48.564;19.272;2023-09-19T05:43:09;14.07;;;12.07;;
77430;SDS011;66498;48.564;19.272;2023-09-19T05:45:34;13.77;;;12.27;;
77430;SDS011;66498;48.564;19.272;2023-09-19T05:48:11;14.00;;;12.48;;
77430;SDS011;66498;48.564;19.272;2023-09-19T05:50:40;14.05;;;11.77;;
77430;SDS011;66498;48.564;19.272;2023-09-19T05:53:07;13.95;;;12.27;;
77430;SDS011;66498;48.564;19.272;2023-09-19T05:55:33;14.43;;;12.25;;
77430;SDS011;66498;48.564;19.272;2023-09-19T05:57:58;13.65;;;11.05;;
77430;SDS011;66498;48.564;19.272;2023-09-19T06:00:24;13.23;;;11.43;;
77430;SDS011;66498;48.564;19.272;2023-09-19T06:02:56;13.05;;;11.68;;
77430;SDS011;66498;48.564;19.272;2023-09-19T06:05:24;12.57;;;11.20;;
77430;SDS011;66498;48.564;19.272;2023-09-19T06:07:55;12.65;;;11.05;;
77430;SDS011;66498;48.564;19.272;2023-09-19T06:10:23;11.90;;;10.65;;
77430;SDS011;66498;48.564;19.272;2023-09-19T06:12:50;12.25;;;11.02;;
77430;SDS011;66498;48.564;19.272;2023-09-19T06:15:16;11.52;;;10.30;;
77430;SDS011;66498;48.564;19.272;2023-09-19T06:17:47;12.13;;;10.00;;
77430;SDS011;66498;48.564;19.272;2023-09-19T06:20:13;11.32;;;10.13;;
77430;SDS011;66498;48.564;19.272;2023-09-19T06:22:43;11.63;;;10.18;;
77430;SDS011;66498;48.564;19.272;2023-09-19T06:25:10;13.05;;;11.35;;
77430;SDS011;66498;48.564;19.272;2023-09-19T06:27:40;12.60;;;11.20;;
77430;SDS011;66498;48.564;19.272;2023-09-19T06:30:08;12.25;;;10.95;;
77430;SDS011;66498;48.564;19.272;2023-09-19T06:32:34;13.90;;;12.23;;
77430;SDS011;66498;48.564;19.272;2023-09-19T06:35:00;14.57;;;12.48;;
77430;SDS011;66498;48.564;19.272;2023-09-19T06:37:29;15.88;;;13.40;;
77430;SDS011;66498;48.564;19.272;2023-09-19T06:39:55;15.15;;;13.05;;
77430;SDS011;66498;48.564;19.272;2023-09-19T06:42:22;16.67;;;13.38;;
77430;SDS011;66498;48.564;19.272;2023-09-19T06:44:48;14.82;;;13.30;;
77430;SDS011;66498;48.564;19.272;2023-09-19T06:47:14;15.88;;;14.18;;
77430;SDS011;66498;48.564;19.272;2023-09-19T06:49:41;15.50;;;13.90;;
77430;SDS011;66498;48.564;19.272;2023-09-19T06:52:09;16.63;;;14.88;;
77430;SDS011;66498;48.564;19.272;2023-09-19T06:54:35;15.68;;;13.98;;
77430;SDS011;66498;48.564;19.272;2023-09-19T06:57:01;17.35;;;14.48;;
77430;SDS011;66498;48.564;19.272;2023-09-19T06:59:26;16.85;;;14.48;;
77430;SDS011;66498;48.564;19.272;2023-09-19T07:01:52;16.05;;;14.43;;
77430;SDS011;66498;48.564;19.272;2023-09-19T07:04:18;15.98;;;14.10;;
77430;SDS011;66498;48.564;19.272;2023-09-19T07:06:48;16.75;;;14.50;;
77430;SDS011;66498;48.564;19.272;2023-09-19T07:09:15;15.18;;;13.55;;
77430;SDS011;66498;48.564;19.272;2023-09-19T07:11:40;14.77;;;12.52;;
77430;SDS011;66498;48.564;19.272;2023-09-19T07:14:06;14.50;;;13.00;;
77430;SDS011;66498;48.564;19.272;2023-09-19T07:16:31;15.40;;;12.60;;
77430;SDS011;66498;48.564;19.272;2023-09-19T07:18:57;14.88;;;13.15;;
77430;SDS011;66498;48.564;19.272;2023-09-19T07:21:23;15.85;;;13.88;;
77430;SDS011;66498;48.564;19.272;2023-09-19T07:23:49;14.50;;;12.55;;
77430;SDS011;66498;48.564;19.272;2023-09-19T07:26:15;16.65;;;13.10;;
77430;SDS011;66498;48.564;19.272;2023-09-19T07:28:41;14.82;;;13.10;;
77430;SDS011;66498;48.564;19.272;2023-09-19T07:31:07;15.95;;;12.98;;
77430;SDS011;66498;48.564;19.272;2023-09-19T07:33:35;13.98;;;12.25;;
77430;SDS011;66498;48.564;19.272;2023-09-19T07:36:01;13.93;;;12.52;;
77430;SDS011;66498;48.564;19.272;2023-09-19T07:38:27;15.70;;;12.35;;
77430;SDS011;66498;48.564;19.272;2023-09-19T07:40:59;14.93;;;13.32;;
77430;SDS011;66498;48.564;19.272;2023-09-19T07:43:25;13.18;;;11.80;;
77430;SDS011;66498;48.564;19.272;2023-09-19T07:45:51;13.02;;;11.73;;
77430;SDS011;66498;48.564;19.272;2023-09-19T07:48:17;13.20;;;11.90;;
77430;SDS011;66498;48.564;19.272;2023-09-19T07:50:43;13.38;;;11.93;;
77430;SDS011;66498;48.564;19.272;2023-09-19T07:53:09;15.30;;;12.80;;
77430;SDS011;66498;48.564;19.272;2023-09-19T07:55:34;15.90;;;13.98;;
77430;SDS011;66498;48.564;19.272;2023-09-19T07:58:02;15.10;;;13.57;;
77430;SDS011;66498;48.564;19.272;2023-09-19T08:00:30;15.68;;;13.77;;
77430;SDS011;66498;48.564;19.272;2023-09-19T08:02:57;15.68;;;13.60;;
77430;SDS011;66498;48.564;19.272;2023-09-19T08:05:23;16.48;;;14.05;;
77430;SDS011;66498;48.564;19.272;2023-09-19T08:07:48;19.58;;;15.15;;
77430;SDS011;66498;48.564;19.272;2023-09-19T08:10:14;15.82;;;14.23;;
77430;SDS011;66498;48.564;19.272;2023-09-19T08:12:44;17.52;;;15.48;;
77430;SDS011;66498;48.564;19.272;2023-09-19T08:15:20;16.40;;;14.70;;
77430;SDS011;66498;48.564;19.272;2023-09-19T08:17:46;18.00;;;15.05;;
77430;SDS011;66498;48.564;19.272;2023-09-19T08:20:13;16.40;;;14.70;;
77430;SDS011;66498;48.564;19.272;2023-09-19T08:22:49;15.32;;;13.73;;
77430;SDS011;66498;48.564;19.272;2023-09-19T08:25:17;12.63;;;11.35;;
77430;SDS011;66498;48.564;19.272;2023-09-19T08:27:44;13.93;;;12.35;;
77430;SDS011;66498;48.564;19.272;2023-09-19T08:30:14;13.75;;;12.45;;
77430;SDS011;66498;48.564;19.272;2023-09-19T08:32:50;14.38;;;12.93;;
77430;SDS011;66498;48.564;19.272;2023-09-19T08:35:16;12.20;;;10.77;;
77430;SDS011;66498;48.564;19.272;2023-09-19T08:37:42;11.15;;;10.05;;
77430;SDS011;66498;48.564;19.272;2023-09-19T08:40:10;9.15;;;6.80;;
77430;SDS011;66498;48.564;19.272;2023-09-19T08:42:53;7.50;;;6.70;;
77430;SDS011;66498;48.564;19.272;2023-09-19T08:53:42;2.97;;;2.40;;
77430;SDS011;66498;48.564;19.272;2023-09-19T08:56:09;2.55;;;2.35;;
77430;SDS011;66498;48.564;19.272;2023-09-19T08:58:44;4.15;;;2.50;;
77430;SDS011;66498;48.564;19.272;2023-09-19T09:01:16;2.97;;;2.25;;
77430;SDS011;66498;48.564;19.272;2023-09-19T09:03:49;3.45;;;1.90;;
77430;SDS011;66498;48.564;19.272;2023-09-19T09:06:22;4.10;;;2.67;;
77430;SDS011;66498;48.564;19.272;2023-09-19T09:08:52;4.13;;;2.50;;
77430;SDS011;66498;48.564;19.272;2023-09-19T09:11:20;3.78;;;2.10;;
77430;SDS011;66498;48.564;19.272;2023-09-19T09:13:48;2.20;;;2.00;;
77430;SDS011;66498;48.564;19.272;2023-09-19T09:16:14;2.72;;;2.05;;
77430;SDS011;66498;48.564;19.272;2023-09-19T09:18:43;2.83;;;2.20;;
77430;SDS011;66498;48.564;19.272;2023-09-19T09:21:10;2.78;;;1.90;;
77430;SDS011;66498;48.564;19.272;2023-09-19T09:23:36;3.55;;;2.28;;
77430;SDS011;66498;48.564;19.272;2023-09-19T09:26:02;4.72;;;2.22;;
77430;SDS011;66498;48.564;19.272;2023-09-19T09:28:29;4.00;;;2.08;;
77430;SDS011;66498;48.564;19.272;2023-09-19T09:30:56;3.50;;;2.00;;
77430;SDS011;66498;48.564;19.272;2023-09-19T09:33:43;3.92;;;1.95;;
77430;SDS011;66498;48.564;19.272;2023-09-19T09:36:19;2.20;;;2.00;;
77430;SDS011;66498;48.564;19.272;2023-09-19T09:38:59;2.67;;;1.60;;
77430;SDS011;66498;48.564;19.272;2023-09-19T09:41:40;2.47;;;1.60;;
77430;SDS011;66498;48.564;19.272;2023-09-19T09:44:16;3.45;;;1.90;;
77430;SDS011;66498;48.564;19.272;2023-09-19T09:46:46;2.40;;;1.70;;
77430;SDS011;66498;48.564;19.272;2023-09-19T09:49:25;2.63;;;1.50;;
77430;SDS011;66498;48.564;19.272;2023-09-19T09:55:03;2.22;;;1.80;;
77430;SDS011;66498;48.564;19.272;2023-09-19T09:57:33;4.43;;;2.20;;
77430;SDS011;66498;48.564;19.272;2023-09-19T09:59:59;5.22;;;1.80;;
77430;SDS011;66498;48.564;19.272;2023-09-19T10:02:38;2.55;;;1.70;;
77430;SDS011;66498;48.564;19.272;2023-09-19T10:05:12;3.10;;;1.70;;
77430;SDS011;66498;48.564;19.272;2023-09-19T10:07:46;2.05;;;1.75;;
77430;SDS011;66498;48.564;19.272;2023-09-19T10:10:38;5.43;;;1.80;;
77430;SDS011;66498;48.564;19.272;2023-09-19T10:13:08;2.42;;;1.52;;
77430;SDS011;66498;48.564;19.272;2023-09-19T10:15:38;1.60;;;1.40;;
77430;SDS011;66498;48.564;19.272;2023-09-19T10:18:13;1.90;;;1.70;;
77430;SDS011;66498;48.564;19.272;2023-09-19T10:20:44;3.88;;;2.20;;
77430;SDS011;66498;48.564;19.272;2023-09-19T10:23:11;3.00;;;1.65;;
77430;SDS011;66498;48.564;19.272;2023-09-19T10:25:41;1.73;;;1.63;;
77430;SDS011;66498;48.564;19.272;2023-09-19T10:28:09;2.20;;;1.55;;
77430;SDS011;66498;48.564;19.272;2023-09-19T10:30:38;2.40;;;1.60;;
77430;SDS011;66498;48.564;19.272;2023-09-19T10:33:12;2.67;;;1.80;;
77430;SDS011;66498;48.564;19.272;2023-09-19T10:35:42;4.35;;;1.60;;
77430;SDS011;66498;48.564;19.272;2023-09-19T10:38:10;1.42;;;1.33;;
77430;SDS011;66498;48.564;19.272;2023-09-19T10:40:37;2.65;;;1.92;;
77430;SDS011;66498;48.564;19.272;2023-09-19T10:43:11;2.67;;;1.50;;
77430;SDS011;66498;48.564;19.272;2023-09-19T10:45:44;1.80;;;1.40;;
77430;SDS011;66498;48.564;19.272;2023-09-19T10:48:18;2.58;;;1.45;;
77430;SDS011;66498;48.564;19.272;2023-09-19T10:56:30;3.50;;;1.80;;
77430;SDS011;66498;48.564;19.272;2023-09-19T10:59:10;2.28;;;1.48;;
77430;SDS011;66498;48.564;19.272;2023-09-19T11:04:21;1.77;;;1.60;;
77430;SDS011;66498;48.564;19.272;2023-09-19T11:15:06;2.30;;;1.40;;
77430;SDS011;66498;48.564;19.272;2023-09-19T11:17:37;1.45;;;1.35;;
77430;SDS011;66498;48.564;19.272;2023-09-19T11:23:17;1.55;;;1.40;;
77430;SDS011;66498;48.564;19.272;2023-09-19T11:25:43;1.30;;;1.20;;
77430;SDS011;66498;48.564;19.272;2023-09-19T11:30:50;1.60;;;1.30;;
77430;SDS011;66498;48.564;19.272;2023-09-19T11:33:19;1.60;;;1.50;;
77430;SDS011;66498;48.564;19.272;2023-09-19T11:41:57;1.45;;;1.30;;
77430;SDS011;66498;48.564;19.272;2023-09-19T11:47:14;2.05;;;1.35;;
77430;SDS011;66498;48.564;19.272;2023-09-19T11:49:27;1.45;;;1.23;;
77430;SDS011;66498;48.564;19.272;2023-09-19T11:51:57;1.98;;;1.13;;
77430;SDS011;66498;48.564;19.272;2023-09-19T11:54:26;2.45;;;1.10;;
77430;SDS011;66498;48.564;19.272;2023-09-19T11:56:57;1.67;;;1.35;;
77430;SDS011;66498;48.564;19.272;2023-09-19T11:59:24;2.10;;;1.13;;
77430;SDS011;66498;48.564;19.272;2023-09-19T12:02:00;1.88;;;1.08;;
77430;SDS011;66498;48.564;19.272;2023-09-19T12:04:35;1.27;;;1.10;;
77430;SDS011;66498;48.564;19.272;2023-09-19T12:07:10;1.38;;;1.00;;
77430;SDS011;66498;48.564;19.272;2023-09-19T12:09:44;1.35;;;1.25;;
77430;SDS011;66498;48.564;19.272;2023-09-19T12:12:24;2.45;;;1.40;;
77430;SDS011;66498;48.564;19.272;2023-09-19T12:14:53;1.77;;;1.25;;
77430;SDS011;66498;48.564;19.272;2023-09-19T12:17:22;1.20;;;1.10;;
77430;SDS011;66498;48.564;19.272;2023-09-19T12:19:52;1.63;;;0.98;;
77430;SDS011;66498;48.564;19.272;2023-09-19T12:22:19;2.60;;;1.20;;
77430;SDS011;66498;48.564;19.272;2023-09-19T12:24:47;1.45;;;1.13;;
77430;SDS011;66498;48.564;19.272;2023-09-19T12:27:13;1.30;;;1.10;;
77430;SDS011;66498;48.564;19.272;2023-09-19T12:29:43;1.83;;;1.13;;
77430;SDS011;66498;48.564;19.272;2023-09-19T12:32:10;1.27;;;1.17;;
77430;SDS011;66498;48.564;19.272;2023-09-19T12:34:36;1.33;;;1.10;;
77430;SDS011;66498;48.564;19.272;2023-09-19T12:39:43;1.33;;;1.23;;
77430;SDS011;66498;48.564;19.272;2023-09-19T12:42:20;2.25;;;1.45;;
77430;SDS011;66498;48.564;19.272;2023-09-19T12:44:48;1.50;;;1.30;;
77430;SDS011;66498;48.564;19.272;2023-09-19T12:47:17;1.42;;;1.30;;
77430;SDS011;66498;48.564;19.272;2023-09-19T12:52:54;3.20;;;1.60;;
77430;SDS011;66498;48.564;19.272;2023-09-19T12:55:27;3.83;;;1.38;;
77430;SDS011;66498;48.564;19.272;2023-09-19T13:00:33;2.33;;;1.10;;
77430;SDS011;66498;48.564;19.272;2023-09-19T13:03:10;1.55;;;1.25;;
77430;SDS011;66498;48.564;19.272;2023-09-19T13:05:47;1.27;;;1.17;;
77430;SDS011;66498;48.564;19.272;2023-09-19T13:08:25;1.70;;;1.30;;
77430;SDS011;66498;48.564;19.272;2023-09-19T13:11:15;1.50;;;1.25;;
77430;SDS011;66498;48.564;19.272;2023-09-19T13:14:29;2.22;;;1.55;;
77430;SDS011;66498;48.564;19.272;2023-09-19T13:17:08;2.85;;;1.10;;
77430;SDS011;66498;48.564;19.272;2023-09-19T13:19:48;1.17;;;1.08;;
77430;SDS011;66498;48.564;19.272;2023-09-19T13:25:19;2.17;;;1.25;;
77430;SDS011;66498;48.564;19.272;2023-09-19T13:27:48;1.67;;;1.13;;
77430;SDS011;66498;48.564;19.272;2023-09-19T13:30:24;1.40;;;1.30;;
77430;SDS011;66498;48.564;19.272;2023-09-19T13:33:06;1.33;;;1.23;;
77430;SDS011;66498;48.564;19.272;2023-09-19T13:35:44;1.77;;;1.38;;
77430;SDS011;66498;48.564;19.272;2023-09-19T13:38:13;1.33;;;1.23;;
77430;SDS011;66498;48.564;19.272;2023-09-19T13:40:39;1.52;;;1.25;;
77430;SDS011;66498;48.564;19.272;2023-09-19T13:43:10;1.40;;;1.30;;
77430;SDS011;66498;48.564;19.272;2023-09-19T13:45:37;2.65;;;1.60;;
77430;SDS011;66498;48.564;19.272;2023-09-19T13:48:09;2.13;;;1.50;;
77430;SDS011;66498;48.564;19.272;2023-09-19T13:50:36;2.55;;;1.60;;
77430;SDS011;66498;48.564;19.272;2023-09-19T13:53:07;2.00;;;1.50;;
77430;SDS011;66498;48.564;19.272;2023-09-19T13:55:35;2.45;;;1.55;;
77430;SDS011;66498;48.564;19.272;2023-09-19T13:58:03;2.22;;;1.50;;
77430;SDS011;66498;48.564;19.272;2023-09-19T14:00:31;2.55;;;1.85;;
77430;SDS011;66498;48.564;19.272;2023-09-19T14:03:02;4.53;;;1.75;;
77430;SDS011;66498;48.564;19.272;2023-09-19T14:05:29;2.22;;;1.80;;
77430;SDS011;66498;48.564;19.272;2023-09-19T14:07:56;3.40;;;1.50;;
77430;SDS011;66498;48.564;19.272;2023-09-19T14:10:22;2.40;;;1.70;;
77430;SDS011;66498;48.564;19.272;2023-09-19T14:12:49;4.53;;;1.80;;
77430;SDS011;66498;48.564;19.272;2023-09-19T14:15:15;1.58;;;1.48;;
77430;SDS011;66498;48.564;19.272;2023-09-19T14:17:40;1.85;;;1.45;;
77430;SDS011;66498;48.564;19.272;2023-09-19T14:20:15;1.75;;;1.45;;
77430;SDS011;66498;48.564;19.272;2023-09-19T14:22:41;2.88;;;1.50;;
77430;SDS011;66498;48.564;19.272;2023-09-19T14:25:07;1.70;;;1.42;;
77430;SDS011;66498;48.564;19.272;2023-09-19T14:27:35;1.90;;;1.20;;
77430;SDS011;66498;48.564;19.272;2023-09-19T14:30:03;2.03;;;1.40;;
77430;SDS011;66498;48.564;19.272;2023-09-19T14:32:31;1.92;;;1.30;;
77430;SDS011;66498;48.564;19.272;2023-09-19T14:34:57;1.50;;;1.10;;
77430;SDS011;66498;48.564;19.272;2023-09-19T14:37:26;2.53;;;1.35;;
77430;SDS011;66498;48.564;19.272;2023-09-19T14:39:53;1.60;;;1.27;;
77430;SDS011;66498;48.564;19.272;2023-09-19T14:42:22;2.53;;;1.42;;
77430;SDS011;66498;48.564;19.272;2023-09-19T14:44:49;2.20;;;1.70;;
77430;SDS011;66498;48.564;19.272;2023-09-19T14:47:16;1.45;;;1.35;;
77430;SDS011;66498;48.564;19.272;2023-09-19T14:49:46;1.73;;;1.20;;
77430;SDS011;66498;48.564;19.272;2023-09-19T14:52:11;1.60;;;1.48;;
77430;SDS011;66498;48.564;19.272;2023-09-19T14:54:40;2.63;;;1.60;;
77430;SDS011;66498;48.564;19.272;2023-09-19T14:57:06;1.63;;;1.50;;
77430;SDS011;66498;48.564;19.272;2023-09-19T14:59:34;1.73;;;1.60;;
77430;SDS011;66498;48.564;19.272;2023-09-19T15:02:03;2.33;;;1.52;;
77430;SDS011;66498;48.564;19.272;2023-09-19T15:04:29;2.75;;;1.40;;
77430;SDS011;66498;48.564;19.272;2023-09-19T15:06:55;1.60;;;1.45;;
77430;SDS011;66498;48.564;19.272;2023-09-19T15:09:21;2.45;;;1.60;;
77430;SDS011;66498;48.564;19.272;2023-09-19T15:11:54;3.28;;;1.42;;
77430;SDS011;66498;48.564;19.272;2023-09-19T15:14:21;2.58;;;1.67;;
77430;SDS011;66498;48.564;19.272;2023-09-19T15:16:47;1.65;;;1.55;;
77430;SDS011;66498;48.564;19.272;2023-09-19T15:19:13;2.38;;;1.55;;
77430;SDS011;66498;48.564;19.272;2023-09-19T15:21:42;1.52;;;1.42;;
77430;SDS011;66498;48.564;19.272;2023-09-19T15:24:09;1.70;;;1.30;;
77430;SDS011;66498;48.564;19.272;2023-09-19T15:26:38;2.13;;;1.60;;
77430;SDS011;66498;48.564;19.272;2023-09-19T15:29:10;1.58;;;1.48;;
77430;SDS011;66498;48.564;19.272;2023-09-19T15:31:36;1.67;;;1.58;;
77430;SDS011;66498;48.564;19.272;2023-09-19T15:34:02;1.83;;;1.60;;
77430;SDS011;66498;48.564;19.272;2023-09-19T15:36:30;1.60;;;1.50;;
77430;SDS011;66498;48.564;19.272;2023-09-19T15:41:34;3.72;;;1.52;;
77430;SDS011;66498;48.564;19.272;2023-09-19T15:44:10;2.20;;;1.50;;
77430;SDS011;66498;48.564;19.272;2023-09-19T15:46:37;2.15;;;1.55;;